KCCY

Northeast Iowa Regional Airport

Charles City, Iowa, USA
METAR KCCY 241215Z AUTO 08011KT 4SM BR OVC003 M06/M06 A3011 RMK AO2
Observed Flight Rules
Feb-24 @ 12:15 UTC (8 minutes ago) Instrument Flight Rules
Wind Visibility Clouds Conditions
80° at 11 knots 4 miles
  • Overcast at 300' AGL
  • Mist
Temperatures Readings
Current -6°C / 21°F
Dewpoint -6°C / 21°F
Humidity 100%
Altimeter 30.11" Hg
Pressure 1020 hPa
Elevation 343
METAR KCCY 241215Z AUTO 08011KT 4SM BR OVC003 M06/M06 A3011 RMK AO2
Observed Flight Rules
Feb-24 @ 12:15 UTC
(8 minutes ago)
LIFR
Wind Visibility
80° at 11 knots 4 miles
Clouds
  • Overcast at 300' AGL
Conditions
  • Mist
Temperature Dewpoint
-6°C / 21°F -6°C / 21°F
Humidity Altimeter Pressure
100% 30.11" Hg 1020 hPa